createdAt,value
2022-09-16T00:00:56.001Z,27.50
2022-09-16T00:03:00.666Z,27.50
2022-09-16T00:05:07.977Z,27.60
2022-09-16T00:07:12.888Z,27.60
2022-09-16T00:09:19.516Z,27.60
2022-09-16T00:11:25.096Z,27.60
2022-09-16T00:13:30.951Z,27.70
2022-09-16T00:15:35.883Z,27.70
2022-09-16T00:17:53.274Z,27.70
2022-09-16T00:20:17.238Z,27.70
2022-09-16T00:22:26.430Z,27.80
2022-09-16T00:24:37.403Z,27.80
2022-09-16T00:26:45.795Z,27.90
2022-09-16T00:28:55.095Z,28.00
2022-09-16T00:31:06.358Z,28.00
2022-09-16T00:33:11.910Z,28.00
2022-09-16T00:35:16.471Z,28.00
2022-09-16T00:37:23.326Z,28.10
2022-09-16T00:39:28.394Z,28.10
2022-09-16T00:41:34.248Z,28.10
2022-09-16T00:43:54.509Z,28.20
2022-09-16T00:46:02.793Z,28.20
2022-09-16T00:48:09.100Z,28.30
2022-09-16T00:50:33.756Z,28.30
2022-09-16T00:52:43.473Z,28.40
2022-09-16T00:54:48.383Z,28.40
2022-09-16T00:56:57.625Z,28.50
2022-09-16T00:59:13.240Z,28.50
2022-09-16T01:01:20.385Z,28.60
2022-09-16T01:03:26.156Z,28.60
2022-09-16T01:05:31.183Z,28.70
2022-09-16T01:07:50.620Z,28.60
2022-09-16T01:09:57.950Z,28.60
2022-09-16T01:12:04.356Z,28.60
2022-09-16T01:14:27.283Z,28.70
2022-09-16T01:16:38.095Z,28.80
2022-09-16T01:19:16.804Z,28.90
2022-09-16T01:21:55.166Z,28.90
2022-09-16T01:24:25.924Z,29.00
2022-09-16T01:27:14.351Z,29.00
2022-09-16T01:29:50.950Z,29.10
2022-09-16T01:32:20.825Z,29.20
2022-09-16T01:34:55.794Z,29.30
2022-09-16T01:37:16.943Z,29.40
2022-09-16T01:40:00.813Z,29.40
2022-09-16T01:42:34.441Z,29.50
2022-09-16T01:45:03.385Z,29.60
2022-09-16T01:47:32.292Z,29.60
2022-09-16T01:49:54.392Z,29.70
2022-09-16T01:52:32.860Z,29.80
2022-09-16T01:54:54.757Z,29.80
2022-09-16T01:57:06.430Z,29.80
2022-09-16T01:59:15.061Z,29.90
2022-09-16T02:01:24.520Z,29.90
2022-09-16T02:03:34.713Z,29.90
2022-09-16T02:05:55.874Z,29.80
2022-09-16T02:08:09.798Z,29.80
2022-09-16T02:10:48.150Z,29.90
2022-09-16T02:12:56.601Z,29.90
2022-09-16T02:15:06.263Z,30.00
2022-09-16T02:17:20.634Z,30.00
2022-09-16T02:19:30.672Z,30.10
2022-09-16T02:21:41.266Z,30.10
2022-09-16T02:23:51.345Z,30.20
2022-09-16T02:25:59.150Z,30.30
2022-09-16T02:28:07.323Z,30.30
2022-09-16T02:30:23.098Z,30.40
2022-09-16T02:32:34.624Z,30.60
2022-09-16T02:34:45.595Z,30.60
2022-09-16T02:36:53.130Z,30.70
2022-09-16T02:39:10.264Z,30.70
2022-09-16T02:41:15.838Z,30.80
2022-09-16T02:43:22.369Z,30.90
2022-09-16T02:46:03.628Z,30.90
2022-09-16T02:48:44.080Z,30.80
2022-09-16T02:50:55.837Z,30.80
2022-09-16T02:53:09.198Z,30.80
2022-09-16T02:55:46.716Z,30.90
2022-09-16T02:57:55.115Z,31.00
2022-09-16T03:00:01.938Z,31.10
2022-09-16T03:02:14.433Z,31.20
2022-09-16T03:04:22.040Z,31.20
2022-09-16T03:06:27.471Z,31.30
2022-09-16T03:08:33.739Z,31.30
2022-09-16T03:10:41.632Z,31.40
2022-09-16T03:13:13.841Z,31.40
2022-09-16T03:15:44.565Z,31.50
2022-09-16T03:18:06.595Z,31.40
2022-09-16T03:20:44.682Z,31.50
2022-09-16T03:23:12.748Z,31.50
2022-09-16T03:25:51.413Z,31.60
2022-09-16T03:28:24.567Z,31.60
2022-09-16T03:31:08.315Z,31.70
2022-09-16T03:33:23.877Z,31.80
2022-09-16T03:35:49.945Z,31.90
2022-09-16T03:38:00.858Z,31.90
2022-09-16T03:40:10.331Z,31.90
2022-09-16T03:42:16.306Z,31.90
2022-09-16T03:44:35.483Z,31.80
2022-09-16T03:46:47.640Z,31.90
2022-09-16T03:48:59.325Z,32.10
2022-09-16T03:51:06.898Z,32.20
2022-09-16T03:53:13.259Z,32.30
2022-09-16T03:55:22.113Z,32.30
2022-09-16T03:57:33.480Z,32.40
2022-09-16T03:59:43.661Z,32.40
2022-09-16T04:01:49.236Z,32.40
2022-09-16T04:04:03.759Z,32.40
2022-09-16T04:06:18.153Z,32.40
2022-09-16T04:08:27.834Z,32.50
2022-09-16T04:10:39.366Z,32.50
2022-09-16T04:12:47.427Z,32.50
2022-09-16T04:14:52.087Z,32.50
2022-09-16T04:17:00.243Z,32.60
2022-09-16T04:19:07.906Z,32.70
2022-09-16T04:21:12.921Z,32.80
2022-09-16T04:23:18.775Z,32.80
2022-09-16T04:25:25.907Z,32.80
2022-09-16T04:27:31.403Z,32.90
2022-09-16T04:29:38.213Z,32.90
2022-09-16T04:31:46.896Z,33.00
2022-09-16T04:33:51.989Z,33.00
2022-09-16T04:36:11.968Z,33.10
2022-09-16T04:38:17.503Z,33.10
2022-09-16T04:40:22.191Z,33.20
2022-09-16T04:42:27.815Z,33.20
2022-09-16T04:44:34.632Z,33.10
2022-09-16T04:46:39.058Z,33.00
2022-09-16T04:48:44.278Z,33.10
2022-09-16T04:50:50.775Z,33.10
2022-09-16T04:52:55.449Z,33.30
2022-09-16T04:55:02.167Z,33.30
2022-09-16T04:57:06.802Z,33.30
2022-09-16T04:59:11.451Z,33.50
2022-09-16T05:01:21.065Z,33.50
2022-09-16T05:03:28.114Z,33.60
2022-09-16T05:05:32.622Z,33.70
2022-09-16T05:07:39.281Z,33.70
2022-09-16T05:09:46.049Z,33.70
2022-09-16T05:11:52.556Z,33.80
2022-09-16T05:14:20.623Z,33.70
2022-09-16T05:16:28.705Z,33.80
2022-09-16T05:18:44.221Z,33.90
2022-09-16T05:21:02.541Z,33.90
2022-09-16T05:23:08.997Z,34.00
2022-09-16T05:25:16.476Z,33.90
2022-09-16T05:27:21.303Z,33.70
2022-09-16T05:29:27.553Z,33.60
2022-09-16T05:31:37.740Z,33.40
2022-09-16T05:33:45.623Z,33.40
2022-09-16T05:35:51.984Z,33.60
2022-09-16T05:37:58.722Z,33.70
2022-09-16T05:40:03.105Z,33.60
2022-09-16T05:42:07.919Z,33.50
2022-09-16T05:44:13.775Z,33.40
2022-09-16T05:46:22.552Z,33.40
2022-09-16T05:48:29.023Z,33.40
2022-09-16T05:50:35.892Z,33.40
2022-09-16T05:52:40.094Z,33.50
2022-09-16T05:54:50.140Z,33.40
2022-09-16T05:56:56.634Z,33.40
2022-09-16T05:59:01.662Z,33.40
2022-09-16T06:01:16.254Z,33.50
2022-09-16T06:03:24.324Z,33.40
2022-09-16T06:05:29.208Z,33.40
2022-09-16T06:07:34.267Z,33.30
2022-09-16T06:09:40.945Z,33.20
2022-09-16T06:11:47.223Z,33.20
2022-09-16T06:14:04.376Z,33.20
2022-09-16T06:16:11.919Z,33.30
2022-09-16T06:18:17.437Z,33.20
2022-09-16T06:20:24.098Z,33.30
2022-09-16T06:22:43.873Z,33.30
2022-09-16T06:24:53.688Z,33.30
2022-09-16T06:27:02.974Z,33.40
2022-09-16T06:29:15.607Z,33.60
2022-09-16T06:31:27.099Z,33.60
2022-09-16T06:33:34.833Z,33.60
2022-09-16T06:35:44.197Z,33.70
2022-09-16T06:37:48.611Z,33.70
2022-09-16T06:39:53.539Z,33.80
2022-09-16T06:42:00.480Z,33.70
2022-09-16T06:44:17.419Z,33.90
2022-09-16T06:46:24.811Z,34.00
2022-09-16T06:48:35.196Z,34.00
2022-09-16T06:50:39.794Z,33.90
2022-09-16T06:52:51.420Z,33.80
2022-09-16T06:54:58.724Z,33.70
2022-09-16T06:57:06.566Z,33.70
2022-09-16T06:59:16.508Z,33.60
2022-09-16T07:01:27.420Z,33.50
2022-09-16T07:03:32.288Z,33.40
2022-09-16T07:05:38.834Z,33.40
2022-09-16T07:07:52.466Z,33.30
2022-09-16T07:10:00.708Z,33.20
2022-09-16T07:12:07.425Z,33.20
2022-09-16T07:14:14.688Z,33.20
2022-09-16T07:16:22.249Z,33.30
2022-09-16T07:18:30.471Z,33.30
2022-09-16T07:20:35.965Z,33.40
2022-09-16T07:22:41.853Z,33.60
2022-09-16T07:24:49.247Z,33.70
2022-09-16T07:26:56.595Z,33.70
2022-09-16T07:29:03.590Z,33.60
2022-09-16T07:31:31.361Z,33.50
2022-09-16T07:34:00.062Z,33.40
2022-09-16T07:36:16.025Z,33.30
2022-09-16T07:38:24.321Z,33.20
2022-09-16T07:40:36.829Z,33.20
2022-09-16T07:42:49.177Z,33.20
2022-09-16T07:44:56.417Z,33.10
2022-09-16T07:47:02.952Z,33.00
2022-09-16T07:49:10.012Z,33.00
2022-09-16T07:51:21.151Z,33.00
2022-09-16T07:53:29.537Z,32.90
2022-09-16T07:55:38.292Z,32.90
2022-09-16T07:57:43.046Z,32.80
2022-09-16T07:59:47.717Z,32.80
2022-09-16T08:01:52.291Z,32.70
2022-09-16T08:03:59.367Z,32.60
2022-09-16T08:06:20.084Z,32.60
2022-09-16T08:08:24.330Z,32.50
2022-09-16T08:10:32.381Z,32.60
2022-09-16T08:12:38.060Z,32.60
2022-09-16T08:14:45.910Z,32.20
2022-09-16T08:16:54.319Z,31.40
2022-09-16T08:18:59.905Z,31.30
2022-09-16T08:21:09.734Z,31.00
2022-09-16T08:23:15.604Z,31.00
2022-09-16T08:25:22.915Z,30.90
2022-09-16T08:27:29.081Z,30.50
2022-09-16T08:29:35.094Z,30.40
2022-09-16T08:31:42.262Z,30.40
2022-09-16T08:33:49.664Z,30.60
2022-09-16T08:36:06.773Z,30.60
2022-09-16T08:38:17.409Z,30.50
2022-09-16T08:40:24.380Z,30.60
2022-09-16T08:42:56.381Z,30.40
2022-09-16T08:45:23.640Z,30.60
2022-09-16T08:48:04.105Z,30.60
2022-09-16T08:50:24.715Z,30.70
2022-09-16T08:52:35.729Z,30.80
2022-09-16T08:54:47.541Z,30.90
2022-09-16T08:56:54.189Z,31.00
2022-09-16T08:59:02.230Z,31.10
2022-09-16T09:01:18.352Z,30.80
2022-09-16T09:03:39.455Z,30.60
2022-09-16T09:05:55.480Z,30.00
2022-09-16T09:08:39.518Z,29.50
2022-09-16T09:11:05.750Z,29.30
2022-09-16T09:13:28.781Z,28.80
2022-09-16T09:16:05.661Z,29.00
2022-09-16T09:18:38.596Z,28.60
2022-09-16T09:21:07.871Z,28.50
2022-09-16T09:23:44.314Z,28.50
2022-09-16T09:26:11.169Z,28.30
2022-09-16T09:28:51.210Z,27.80
2022-09-16T09:31:22.325Z,27.80
2022-09-16T09:33:45.999Z,27.80
2022-09-16T09:36:11.015Z,27.80
2022-09-16T09:38:35.762Z,27.50
2022-09-16T09:41:09.808Z,27.70
2022-09-16T09:43:41.494Z,28.30
2022-09-16T09:46:01.586Z,28.30
2022-09-16T09:48:22.969Z,28.20
2022-09-16T09:50:45.104Z,28.40
2022-09-16T09:53:30.260Z,28.20
2022-09-16T09:55:38.764Z,28.30
2022-09-16T09:57:59.627Z,27.90
2022-09-16T10:00:14.596Z,28.30
2022-09-16T10:02:22.452Z,27.90
2022-09-16T10:04:27.629Z,27.50
2022-09-16T10:06:34.964Z,27.80
2022-09-16T10:08:48.189Z,27.80
2022-09-16T10:10:55.000Z,28.10
2022-09-16T10:13:09.724Z,28.30
2022-09-16T10:15:35.343Z,28.40
2022-09-16T10:17:40.646Z,28.40
2022-09-16T10:20:06.983Z,28.30
2022-09-16T10:22:21.070Z,28.30
2022-09-16T10:24:37.166Z,28.50
2022-09-16T10:26:42.594Z,28.50
2022-09-16T10:29:03.665Z,28.50
2022-09-16T10:31:09.211Z,28.40
2022-09-16T10:33:18.772Z,28.50
2022-09-16T10:35:30.693Z,28.50
2022-09-16T10:37:37.419Z,28.40
2022-09-16T10:39:54.192Z,28.30
2022-09-16T10:41:58.734Z,28.30
2022-09-16T10:44:13.921Z,28.30
2022-09-16T10:46:23.260Z,28.40
2022-09-16T10:48:29.527Z,28.40
2022-09-16T10:50:34.122Z,28.40
2022-09-16T10:52:47.495Z,28.20
2022-09-16T10:54:54.174Z,28.30
2022-09-16T10:56:59.489Z,28.20
2022-09-16T10:59:15.191Z,28.20
2022-09-16T11:01:46.988Z,28.30
2022-09-16T11:04:18.805Z,28.20
2022-09-16T11:06:48.246Z,28.30
2022-09-16T11:09:17.212Z,28.30
2022-09-16T11:11:56.396Z,28.30
2022-09-16T11:14:33.937Z,28.30
2022-09-16T11:17:17.479Z,28.30
2022-09-16T11:20:01.516Z,28.30
2022-09-16T11:22:28.269Z,28.30
2022-09-16T11:25:04.583Z,28.20
2022-09-16T11:27:27.796Z,28.10
2022-09-16T11:30:00.931Z,28.10
2022-09-16T11:32:45.889Z,28.20
2022-09-16T11:35:24.208Z,28.20
2022-09-16T11:38:00.529Z,28.10
2022-09-16T11:40:39.450Z,28.10
2022-09-16T11:42:52.382Z,28.10
2022-09-16T11:45:21.643Z,28.10
2022-09-16T11:47:41.614Z,28.10
2022-09-16T11:50:08.346Z,28.00
2022-09-16T11:52:37.560Z,28.10
2022-09-16T11:55:18.256Z,28.10
2022-09-16T11:57:27.591Z,28.10
2022-09-16T11:59:51.283Z,27.90
2022-09-16T12:02:47.455Z,27.90
2022-09-16T12:05:15.767Z,28.00
2022-09-16T12:07:38.110Z,27.90
2022-09-16T12:10:08.508Z,27.90
2022-09-16T12:12:15.160Z,27.80
2022-09-16T12:14:32.963Z,27.70
2022-09-16T12:16:43.905Z,27.80
2022-09-16T12:18:57.752Z,27.90
2022-09-16T12:21:29.531Z,27.90
2022-09-16T12:23:38.034Z,28.00
2022-09-16T12:26:29.377Z,27.90
2022-09-16T12:29:03.679Z,27.90
2022-09-16T12:31:17.976Z,27.90
2022-09-16T12:33:36.488Z,27.90
2022-09-16T12:36:11.204Z,27.90
2022-09-16T12:38:22.004Z,27.90
2022-09-16T12:40:57.896Z,27.90
2022-09-16T12:43:44.475Z,27.80
2022-09-16T12:46:14.173Z,27.80
2022-09-16T12:48:47.567Z,27.80
2022-09-16T12:51:24.225Z,27.80
2022-09-16T12:54:02.863Z,27.70
2022-09-16T12:56:17.601Z,27.80
2022-09-16T12:58:47.221Z,27.80
2022-09-16T13:01:26.773Z,27.70
2022-09-16T13:05:40.337Z,27.70
2022-09-16T13:07:51.108Z,27.70
2022-09-16T13:10:10.236Z,27.70
2022-09-16T13:12:44.704Z,27.80
2022-09-16T13:15:01.023Z,27.80
2022-09-16T13:17:10.495Z,27.80
2022-09-16T13:19:40.031Z,27.80
2022-09-16T13:21:46.677Z,27.70
2022-09-16T13:24:01.928Z,27.80
2022-09-16T13:26:08.353Z,27.70
2022-09-16T13:28:49.285Z,27.70
2022-09-16T13:30:56.532Z,27.70
2022-09-16T13:33:03.585Z,27.70
2022-09-16T13:35:25.855Z,27.70
2022-09-16T13:37:31.020Z,27.70
2022-09-16T13:39:36.058Z,27.70
2022-09-16T13:41:50.368Z,27.70
2022-09-16T13:43:57.814Z,27.70
2022-09-16T13:46:11.777Z,27.60
2022-09-16T13:48:21.649Z,27.60
2022-09-16T13:50:28.369Z,27.30
2022-09-16T13:52:35.081Z,27.20
2022-09-16T13:55:09.330Z,27.20
2022-09-16T13:57:36.066Z,27.20
2022-09-16T14:00:14.406Z,27.30
2022-09-16T14:02:34.703Z,27.40
2022-09-16T14:05:11.389Z,27.40
2022-09-16T14:07:46.537Z,27.50
2022-09-16T14:10:05.295Z,27.40
2022-09-16T14:12:35.750Z,27.30
2022-09-16T14:14:47.679Z,27.20
2022-09-16T14:16:52.595Z,27.20
2022-09-16T14:19:37.608Z,27.20
2022-09-16T14:22:07.495Z,27.30
2022-09-16T14:24:20.097Z,27.40
2022-09-16T14:26:25.315Z,27.30
2022-09-16T14:28:36.051Z,27.30
2022-09-16T14:31:03.256Z,27.40
2022-09-16T14:33:09.889Z,27.40
2022-09-16T14:35:25.100Z,27.40
2022-09-16T14:37:29.611Z,27.40
2022-09-16T14:39:34.758Z,27.40
2022-09-16T14:42:00.291Z,27.40
2022-09-16T14:44:29.968Z,27.40
2022-09-16T14:46:34.491Z,27.40
2022-09-16T14:48:40.809Z,27.40
2022-09-16T14:50:49.912Z,27.40
2022-09-16T14:52:59.227Z,27.40
2022-09-16T14:55:25.981Z,27.40
2022-09-16T14:57:31.114Z,27.40
2022-09-16T14:59:40.265Z,27.40
2022-09-16T15:01:46.277Z,27.40
2022-09-16T15:04:01.192Z,27.40
2022-09-16T15:06:08.645Z,27.40
2022-09-16T15:08:31.398Z,27.40
2022-09-16T15:10:51.554Z,27.40
2022-09-16T15:13:02.128Z,27.30
2022-09-16T15:15:26.961Z,27.30
2022-09-16T15:17:31.279Z,27.30
2022-09-16T15:19:37.498Z,27.30
2022-09-16T15:21:47.174Z,27.30
2022-09-16T15:23:54.903Z,27.30
2022-09-16T15:26:21.027Z,27.30
2022-09-16T15:28:31.243Z,27.30
2022-09-16T15:30:35.783Z,27.30
2022-09-16T15:32:45.964Z,27.30
2022-09-16T15:35:14.195Z,27.30
2022-09-16T15:37:32.180Z,27.30
2022-09-16T15:39:40.872Z,27.20
2022-09-16T15:41:49.422Z,27.20
2022-09-16T15:43:53.706Z,27.10
2022-09-16T15:46:01.348Z,27.20
2022-09-16T15:48:23.161Z,27.20
2022-09-16T15:50:28.046Z,27.20
2022-09-16T15:52:49.551Z,27.20
2022-09-16T15:54:59.764Z,27.20
2022-09-16T15:57:22.495Z,27.20
2022-09-16T15:59:45.363Z,27.30
2022-09-16T16:01:58.242Z,27.20
2022-09-16T16:04:03.112Z,27.20
2022-09-16T16:06:08.629Z,27.20
2022-09-16T16:08:17.308Z,27.20
2022-09-16T16:10:31.148Z,27.30
2022-09-16T16:12:35.765Z,27.20
2022-09-16T16:14:46.889Z,27.20
2022-09-16T16:17:11.807Z,27.10
2022-09-16T16:19:16.694Z,27.20
2022-09-16T16:21:25.960Z,27.20
2022-09-16T16:23:30.485Z,27.20
2022-09-16T16:25:34.990Z,27.20
2022-09-16T16:27:44.004Z,27.20
2022-09-16T16:29:49.130Z,27.20
2022-09-16T16:32:15.125Z,27.20
2022-09-16T16:34:24.845Z,27.20
2022-09-16T16:36:31.009Z,27.20
2022-09-16T16:38:35.571Z,27.10
2022-09-16T16:40:52.885Z,27.20
2022-09-16T16:42:57.767Z,27.20
2022-09-16T16:45:02.439Z,27.20
2022-09-16T16:47:13.382Z,27.20
2022-09-16T16:49:18.248Z,27.20
2022-09-16T16:51:23.050Z,27.20
2022-09-16T16:53:32.549Z,27.20
2022-09-16T16:55:37.023Z,27.20
2022-09-16T16:57:41.355Z,27.20
2022-09-16T16:59:50.898Z,27.20
2022-09-16T17:01:56.904Z,27.10
2022-09-16T17:04:01.929Z,27.10
2022-09-16T17:06:10.715Z,27.10
2022-09-16T17:08:15.583Z,27.20
2022-09-16T17:10:20.067Z,27.10
2022-09-16T17:12:31.096Z,27.20
2022-09-16T17:14:35.637Z,27.20
2022-09-16T17:16:40.035Z,27.20
2022-09-16T17:18:51.104Z,27.20
2022-09-16T17:20:55.599Z,27.20
2022-09-16T17:23:00.112Z,27.20
2022-09-16T17:25:09.978Z,27.10
2022-09-16T17:27:15.945Z,27.20
2022-09-16T17:29:20.800Z,27.20
2022-09-16T17:31:31.013Z,27.20
2022-09-16T17:33:35.407Z,27.20
2022-09-16T17:35:42.758Z,27.20
2022-09-16T17:37:54.299Z,27.20
2022-09-16T17:40:18.848Z,27.20
2022-09-16T17:42:31.013Z,27.10
2022-09-16T17:44:42.274Z,27.10
2022-09-16T17:46:54.376Z,27.10
2022-09-16T17:49:07.907Z,27.10
2022-09-16T17:51:18.386Z,27.10
2022-09-16T17:53:22.951Z,27.10
2022-09-16T17:55:27.279Z,27.10
2022-09-16T17:57:35.864Z,27.10
2022-09-16T17:59:40.143Z,27.10
2022-09-16T18:01:44.713Z,27.10
2022-09-16T18:03:55.764Z,27.10
2022-09-16T18:06:09.258Z,27.10
2022-09-16T18:08:26.964Z,27.10
2022-09-16T18:10:36.717Z,27.10
2022-09-16T18:12:41.262Z,27.10
2022-09-16T18:14:46.358Z,27.10
2022-09-16T18:16:56.931Z,27.10
2022-09-16T18:19:02.034Z,27.10
2022-09-16T18:21:06.917Z,27.10
2022-09-16T18:23:17.233Z,27.10
2022-09-16T18:25:21.568Z,27.10
2022-09-16T18:27:26.555Z,27.10
2022-09-16T18:29:37.581Z,27.10
2022-09-16T18:31:45.125Z,27.10
2022-09-16T18:33:51.178Z,27.00
2022-09-16T18:36:07.604Z,27.10
2022-09-16T18:38:13.916Z,27.00
2022-09-16T18:40:18.485Z,27.00
2022-09-16T18:42:27.590Z,27.10
2022-09-16T18:44:32.561Z,27.10
2022-09-16T18:46:38.513Z,27.00
2022-09-16T18:48:49.701Z,27.00
2022-09-16T18:50:56.091Z,27.00
2022-09-16T18:53:01.754Z,27.00
2022-09-16T18:55:12.565Z,27.00
2022-09-16T18:57:18.593Z,27.00
2022-09-16T18:59:24.804Z,27.00
2022-09-16T19:01:36.304Z,27.00
2022-09-16T19:03:40.599Z,27.00
2022-09-16T19:05:45.493Z,27.00
2022-09-16T19:07:56.131Z,26.90
2022-09-16T19:10:00.399Z,26.90
2022-09-16T19:12:06.166Z,27.00
2022-09-16T19:14:16.509Z,26.90
2022-09-16T19:16:21.412Z,26.90
2022-09-16T19:18:26.754Z,26.90
2022-09-16T19:20:37.913Z,26.80
2022-09-16T19:22:43.175Z,26.90
2022-09-16T19:24:48.785Z,26.90
2022-09-16T19:26:57.486Z,26.80
2022-09-16T19:29:02.308Z,26.70
2022-09-16T19:31:08.966Z,26.80
2022-09-16T19:33:15.538Z,26.80
2022-09-16T19:35:19.994Z,26.80
2022-09-16T19:37:25.285Z,26.80
2022-09-16T19:39:36.985Z,26.80
2022-09-16T19:41:41.631Z,26.60
2022-09-16T19:43:46.400Z,26.60
2022-09-16T19:45:57.147Z,26.70
2022-09-16T19:48:01.710Z,26.70
2022-09-16T19:50:08.533Z,26.80
2022-09-16T19:52:17.032Z,26.80
2022-09-16T19:54:25.982Z,26.80
2022-09-16T19:56:34.247Z,26.80
2022-09-16T19:58:44.664Z,26.80
2022-09-16T20:00:56.212Z,26.90
2022-09-16T20:03:01.324Z,26.80
2022-09-16T20:05:12.327Z,26.80
2022-09-16T20:07:18.722Z,26.80
2022-09-16T20:09:22.996Z,26.80
2022-09-16T20:11:34.350Z,26.80
2022-09-16T20:13:39.937Z,26.80
2022-09-16T20:15:44.576Z,26.80
2022-09-16T20:17:55.664Z,26.80
2022-09-16T20:20:01.401Z,26.80
2022-09-16T20:22:07.682Z,26.80
2022-09-16T20:24:25.937Z,26.70
2022-09-16T20:26:31.909Z,26.70
2022-09-16T20:28:44.352Z,26.70
2022-09-16T20:30:55.073Z,26.80
2022-09-16T20:33:01.998Z,26.80
2022-09-16T20:35:08.517Z,26.80
2022-09-16T20:37:21.030Z,26.80
2022-09-16T20:39:39.291Z,26.80
2022-09-16T20:41:46.563Z,26.80
2022-09-16T20:43:55.142Z,26.80
2022-09-16T20:46:08.827Z,26.80
2022-09-16T20:48:18.526Z,26.80
2022-09-16T20:50:30.179Z,26.80
2022-09-16T20:52:35.266Z,26.80
2022-09-16T20:54:39.896Z,26.80
2022-09-16T20:56:51.734Z,26.70
2022-09-16T20:58:57.905Z,26.80
2022-09-16T21:01:08.247Z,26.80
2022-09-16T21:03:19.895Z,26.80
2022-09-16T21:05:44.016Z,26.80
2022-09-16T21:08:04.779Z,26.80
2022-09-16T21:10:17.898Z,26.80
2022-09-16T21:12:27.115Z,26.80
2022-09-16T21:14:32.374Z,26.80
2022-09-16T21:16:41.537Z,26.80
2022-09-16T21:18:47.067Z,26.80
2022-09-16T21:21:04.164Z,26.70
2022-09-16T21:23:12.905Z,26.70
2022-09-16T21:25:17.755Z,26.70
2022-09-16T21:27:22.483Z,26.70
2022-09-16T21:29:34.242Z,26.70
2022-09-16T21:31:42.246Z,26.80
2022-09-16T21:33:50.505Z,26.80
2022-09-16T21:36:01.773Z,26.70
2022-09-16T21:38:11.653Z,26.70
2022-09-16T21:40:24.723Z,26.70
2022-09-16T21:42:34.258Z,26.60
2022-09-16T21:44:39.656Z,26.70
2022-09-16T21:46:47.138Z,26.70
2022-09-16T21:49:05.249Z,26.60
2022-09-16T21:51:13.728Z,26.70
2022-09-16T21:53:18.318Z,26.70
2022-09-16T21:55:31.471Z,26.70
2022-09-16T21:57:36.724Z,26.60
2022-09-16T21:59:45.117Z,26.60
2022-09-16T22:02:03.754Z,26.70
2022-09-16T22:04:18.344Z,26.70
2022-09-16T22:06:23.559Z,26.70
2022-09-16T22:08:32.163Z,26.70
2022-09-16T22:10:36.863Z,26.70
2022-09-16T22:12:44.944Z,26.70
2022-09-16T22:14:53.898Z,26.70
2022-09-16T22:17:03.650Z,26.70
2022-09-16T22:19:17.072Z,26.70
2022-09-16T22:21:25.713Z,26.70
2022-09-16T22:23:30.426Z,26.70
2022-09-16T22:25:37.539Z,26.70
2022-09-16T22:27:46.148Z,26.70
2022-09-16T22:29:51.264Z,26.70
2022-09-16T22:31:55.535Z,26.70
2022-09-16T22:34:04.283Z,26.70
2022-09-16T22:36:11.655Z,26.60
2022-09-16T22:38:16.037Z,26.70
2022-09-16T22:40:24.617Z,26.70
2022-09-16T22:42:28.848Z,26.70
2022-09-16T22:44:33.327Z,26.70
2022-09-16T22:46:47.529Z,26.70
2022-09-16T22:48:52.846Z,26.70
2022-09-16T22:50:58.302Z,26.60
2022-09-16T22:53:07.123Z,26.70
2022-09-16T22:55:32.480Z,26.70
2022-09-16T22:57:36.719Z,26.70
2022-09-16T22:59:46.493Z,26.70
2022-09-16T23:01:51.524Z,26.70
2022-09-16T23:03:57.449Z,26.70
2022-09-16T23:06:10.055Z,26.70
2022-09-16T23:08:16.660Z,26.70
2022-09-16T23:10:25.962Z,26.70
2022-09-16T23:12:45.643Z,26.70
2022-09-16T23:15:12.468Z,26.70
2022-09-16T23:17:23.563Z,26.70
2022-09-16T23:19:35.468Z,26.70
2022-09-16T23:21:45.493Z,26.70
2022-09-16T23:23:53.611Z,26.70
2022-09-16T23:25:58.446Z,26.70
2022-09-16T23:28:10.771Z,26.70
2022-09-16T23:30:26.184Z,26.70
2022-09-16T23:32:34.379Z,26.70
2022-09-16T23:34:51.293Z,26.70
2022-09-16T23:37:09.479Z,26.80
2022-09-16T23:39:22.478Z,26.80
2022-09-16T23:41:43.462Z,26.80
2022-09-16T23:44:02.004Z,26.80
2022-09-16T23:46:20.058Z,26.80
2022-09-16T23:48:33.837Z,26.90
2022-09-16T23:50:53.312Z,26.90
2022-09-16T23:53:14.015Z,26.90
2022-09-16T23:55:22.610Z,26.90
2022-09-16T23:57:47.004Z,26.90
